• Join FlightAware (Why Join?)
  • Login
  • US Flag 
10:32PM EDT


 

Airport Tracker/Info


-or-


 

Live Flight TrackerFlight Track Log ✈ N300CT ✈ 06-Jul-2013 ✈ KPWM - KFRG

Flight Track Log - Related Links

Times and Time Zones

All times are in EDT time to prevent confusion due to time zone crossing. See the N300CT flight status page for this flight to view local times or setup timezone preferences in your user account.

Time Position Orientation Groundspeed Altitude Reporting Facility
EDT Latitude Longitude Course Direction KTS MPH feet Rate Location/Type
06:25PM 41.4853 -72.6450 211° Southwest 167 192 4,500  Level Boston Center
06:27PM 41.4167 -72.7000 211° Southwest 169 194 4,500  Level New York TRACON
06:28PM 41.3833 -72.7500 228° Southwest 165 190 4,500  Level New York TRACON
06:29PM 41.3500 -72.7833 217° Southwest 165 190 4,500  Level New York TRACON
06:30PM 41.3167 -72.8167 217° Southwest 168 193 4,500  Level New York TRACON
06:31PM 41.2833 -72.8500 217° Southwest 171 197 4,500  Level New York TRACON
06:32PM 41.2333 -72.8833 207° Southwest 168 193 4,500 -120 Level New York TRACON
06:33PM 41.2000 -72.9167 217° Southwest 172 198 4,300 -300 Descending New York TRACON
06:34PM 41.1500 -72.9500 207° Southwest 174 200 4,000 -300 Descending New York TRACON
06:35PM 41.1333 -73.0000 246° West 175 201 3,700 -360 Descending New York TRACON
06:36PM 41.1000 -73.0500 229° Southwest 172 198 3,300 -300 Descending New York TRACON
06:37PM 41.0667 -73.1000 229° Southwest 172 198 3,100 -240 Descending New York TRACON
06:39PM 41.0115 -73.1415 210° Southwest  Level FlightAware Approximate
06:46PM 40.8211 -73.3124 217° Southwest  Level FlightAware Approximate
06:47PM 40.7949 -73.3385 217° Southwest  Level FlightAware Approximate
06:48PM 40.7653 -73.3514 217° Southwest  Level FlightAware Approximate
06:49PM 40.7392 -73.3775 217° Southwest  Level FlightAware Approximate
06:50PM 40.7167 -73.4000 217° Southwest  Level FlightAware Approximate
06:51PM 40.7288 -73.4134 217° Southwest  Level Estimated
06:52PM 40.7288 -73.4134 217° Southwest  Level Estimated
06:53PM 40.7288 -73.4134 217° Southwest  Level Estimated
06:54PM 40.7288 -73.4134 217° Southwest  Level Estimated
06:55PM 40.7288 -73.4134 217° Southwest  Level Estimated
06:56PM 40.7288 -73.4134 217° Southwest  Level Estimated
06:57PM 40.7288 -73.4134 217° Southwest  Level Estimated
06:58PM 40.7288 -73.4134 217° Southwest  Level Estimated
06:59PM 40.7288 -73.4134 217° Southwest  Level Estimated
07:00PM 40.7288 -73.4134 217° Southwest  Level Estimated
07:01PM 40.7288 -73.4134 217° Southwest  Level Estimated
07:02PM 40.7288 -73.4134 217° Southwest  Level Estimated
07:03PM 40.7288 -73.4134 217° Southwest  Level Estimated
07:04PM 40.7288 -73.4134 217° Southwest  Level Estimated